Ann Arbor, MI

7:03 PM EST on December 08, 2016 (GMT -0500)
Leslie Park Golf Course | | Change Station

Elev 906 ft 42.31 °N, 83.72 °W | Updated 1 minute ago

Overcast
Overcast
26.3 °F
Feels Like 19 °F
N
6.0
Wind Variable Wind from West
Gusts 13.0 mph

Today
High -- | Low -- °F
--% Chance of Precip.
Yesterday
High -- | Low -- °F
Precip. -- in
Pressure 30.23 in
Visibility 10.0 miles
Clouds Mostly Cloudy 1800 ft
Overcast 4100 ft
Windchill 19 °F
Dew Point 22 °F
Humidity 85%
Rainfall 0.00 in
Snow Depth Not available.
7:51 AM 5:02 PM
Waxing Gibbous, 68% visible
METAR KARB 082353Z 24015KT 10SM BKN018 OVC041 M04/M07 A3019 RMK AO2 SNE25 SLP236 P0000 60000 T10441067 11028 21044 53009
Pressure 30.23 in
Visibility 10.0 miles
Clouds Mostly Cloudy 1800 ft
Overcast 4100 ft
Windchill 19 °F
Dew Point 22 °F
Humidity 85%
Rainfall 0.00 in
Snow Depth Not available.
7:51 AM 5:02 PM
Waxing Gibbous, 68% visible
METAR KARB 082353Z 24015KT 10SM BKN018 OVC041 M04/M07 A3019 RMK AO2 SNE25 SLP236 P0000 60000 T10441067 11028 21044 53009

10-Day Weather Forecast

Almanac

Astronomy

Dec. 08, 2016 Rise Set
Actual Time
Civil Twilight
Nautical Twilight
Astronomical Twilight
Moon
Length of Visible Light
Length of Day
Tomorrow will be .
, % of the Moon is Illuminated

Today's Extremes

State Highs State Lows

Community

WunderPhotos

Upload Photos

1,956,277 photos uploaded!

WunderBlog® & News

Nearby

Air Quality

  Air Quality AQ Index Pollutant
Not available.

Snow Depth

Station Depth Elevation

Earthquake Activity

City Distance Mag. Time & Date
Minimum magnitude displayed is 2.5.

Coastal Water Temperatures

Place Temperature

Stations

Nearby Weather Stations

Station Location Temp. Windchill Dew Point Humidity Wind Precip. Elev Updated Type
                   

Watches & Warnings

There are currently no watches in effect.